sensor_id;sensor_type;location;lat;lon;timestamp;P1;durP1;ratioP1;P2;durP2;ratioP2
61590;SDS011;57639;52.410;-1.966;2022-09-03T00:02:13;4.57;;;2.78;;
61590;SDS011;57639;52.410;-1.966;2022-09-03T00:05:28;4.07;;;2.72;;
61590;SDS011;57639;52.410;-1.966;2022-09-03T00:08:47;3.30;;;2.47;;
61590;SDS011;57639;52.410;-1.966;2022-09-03T00:12:05;3.85;;;2.70;;
61590;SDS011;57639;52.410;-1.966;2022-09-03T00:15:16;3.22;;;2.65;;
61590;SDS011;57639;52.410;-1.966;2022-09-03T00:18:26;3.70;;;2.53;;
61590;SDS011;57639;52.410;-1.966;2022-09-03T00:21:40;3.88;;;2.45;;
61590;SDS011;57639;52.410;-1.966;2022-09-03T00:24:55;3.70;;;2.50;;
61590;SDS011;57639;52.410;-1.966;2022-09-03T00:28:07;4.50;;;2.55;;
61590;SDS011;57639;52.410;-1.966;2022-09-03T00:31:22;5.22;;;2.40;;
61590;SDS011;57639;52.410;-1.966;2022-09-03T00:34:37;3.65;;;2.78;;
61590;SDS011;57639;52.410;-1.966;2022-09-03T00:37:47;3.88;;;3.00;;
61590;SDS011;57639;52.410;-1.966;2022-09-03T00:44:20;3.38;;;2.50;;
61590;SDS011;57639;52.410;-1.966;2022-09-03T00:47:55;3.50;;;2.60;;
61590;SDS011;57639;52.410;-1.966;2022-09-03T00:51:13;4.97;;;2.67;;
61590;SDS011;57639;52.410;-1.966;2022-09-03T00:54:32;3.70;;;2.70;;
61590;SDS011;57639;52.410;-1.966;2022-09-03T00:57:54;4.57;;;2.60;;
61590;SDS011;57639;52.410;-1.966;2022-09-03T01:01:14;3.50;;;2.55;;
61590;SDS011;57639;52.410;-1.966;2022-09-03T01:04:29;4.90;;;2.88;;
61590;SDS011;57639;52.410;-1.966;2022-09-03T01:07:48;4.03;;;2.80;;
61590;SDS011;57639;52.410;-1.966;2022-09-03T01:11:08;3.08;;;2.60;;
61590;SDS011;57639;52.410;-1.966;2022-09-03T01:14:33;3.45;;;2.67;;
61590;SDS011;57639;52.410;-1.966;2022-09-03T01:17:54;4.28;;;2.80;;
61590;SDS011;57639;52.410;-1.966;2022-09-03T01:21:18;3.92;;;2.65;;
61590;SDS011;57639;52.410;-1.966;2022-09-03T01:25:11;3.53;;;2.50;;
61590;SDS011;57639;52.410;-1.966;2022-09-03T01:28:31;4.50;;;2.70;;
61590;SDS011;57639;52.410;-1.966;2022-09-03T01:31:49;3.63;;;2.85;;
61590;SDS011;57639;52.410;-1.966;2022-09-03T01:35:09;3.87;;;2.93;;
61590;SDS011;57639;52.410;-1.966;2022-09-03T01:38:25;3.80;;;2.75;;
61590;SDS011;57639;52.410;-1.966;2022-09-03T01:41:41;4.00;;;2.60;;
61590;SDS011;57639;52.410;-1.966;2022-09-03T01:45:20;4.25;;;2.80;;
61590;SDS011;57639;52.410;-1.966;2022-09-03T01:48:55;3.50;;;2.67;;
61590;SDS011;57639;52.410;-1.966;2022-09-03T01:52:15;4.00;;;3.15;;
61590;SDS011;57639;52.410;-1.966;2022-09-03T01:55:30;3.95;;;2.58;;
61590;SDS011;57639;52.410;-1.966;2022-09-03T01:58:39;5.28;;;3.10;;
61590;SDS011;57639;52.410;-1.966;2022-09-03T02:01:55;3.97;;;2.78;;
61590;SDS011;57639;52.410;-1.966;2022-09-03T02:05:09;3.65;;;2.53;;
61590;SDS011;57639;52.410;-1.966;2022-09-03T02:11:26;3.90;;;2.80;;
61590;SDS011;57639;52.410;-1.966;2022-09-03T02:14:37;3.78;;;2.65;;
61590;SDS011;57639;52.410;-1.966;2022-09-03T02:17:50;5.03;;;3.00;;
61590;SDS011;57639;52.410;-1.966;2022-09-03T02:21:20;3.53;;;3.03;;
61590;SDS011;57639;52.410;-1.966;2022-09-03T02:24:34;3.70;;;2.80;;
61590;SDS011;57639;52.410;-1.966;2022-09-03T02:27:43;4.47;;;3.03;;
61590;SDS011;57639;52.410;-1.966;2022-09-03T02:30:56;3.88;;;3.05;;
61590;SDS011;57639;52.410;-1.966;2022-09-03T02:34:10;5.35;;;3.17;;
61590;SDS011;57639;52.410;-1.966;2022-09-03T02:37:21;3.22;;;2.72;;
61590;SDS011;57639;52.410;-1.966;2022-09-03T02:40:32;4.30;;;2.90;;
61590;SDS011;57639;52.410;-1.966;2022-09-03T02:43:45;4.43;;;3.25;;
61590;SDS011;57639;52.410;-1.966;2022-09-03T02:47:00;3.20;;;2.53;;
61590;SDS011;57639;52.410;-1.966;2022-09-03T02:50:16;4.22;;;3.20;;
61590;SDS011;57639;52.410;-1.966;2022-09-03T02:53:28;4.60;;;3.50;;
61590;SDS011;57639;52.410;-1.966;2022-09-03T02:56:37;4.13;;;3.40;;
61590;SDS011;57639;52.410;-1.966;2022-09-03T02:59:55;4.32;;;3.33;;
61590;SDS011;57639;52.410;-1.966;2022-09-03T03:03:05;4.38;;;3.45;;
61590;SDS011;57639;52.410;-1.966;2022-09-03T03:06:22;4.47;;;3.22;;
61590;SDS011;57639;52.410;-1.966;2022-09-03T03:09:31;4.70;;;3.40;;
61590;SDS011;57639;52.410;-1.966;2022-09-03T03:12:43;4.85;;;3.40;;
61590;SDS011;57639;52.410;-1.966;2022-09-03T03:15:53;5.65;;;3.72;;
61590;SDS011;57639;52.410;-1.966;2022-09-03T03:19:05;4.93;;;3.90;;
61590;SDS011;57639;52.410;-1.966;2022-09-03T03:22:17;4.10;;;3.28;;
61590;SDS011;57639;52.410;-1.966;2022-09-03T03:25:26;4.05;;;3.13;;
61590;SDS011;57639;52.410;-1.966;2022-09-03T03:28:34;6.22;;;3.67;;
61590;SDS011;57639;52.410;-1.966;2022-09-03T03:31:46;5.88;;;3.60;;
61590;SDS011;57639;52.410;-1.966;2022-09-03T03:34:57;5.03;;;2.90;;
61590;SDS011;57639;52.410;-1.966;2022-09-03T03:38:12;4.78;;;3.45;;
61590;SDS011;57639;52.410;-1.966;2022-09-03T03:41:28;5.75;;;3.70;;
61590;SDS011;57639;52.410;-1.966;2022-09-03T03:44:39;4.78;;;3.60;;
61590;SDS011;57639;52.410;-1.966;2022-09-03T03:47:48;5.20;;;3.50;;
61590;SDS011;57639;52.410;-1.966;2022-09-03T03:50:59;4.40;;;3.47;;
61590;SDS011;57639;52.410;-1.966;2022-09-03T03:54:14;4.85;;;3.60;;
61590;SDS011;57639;52.410;-1.966;2022-09-03T03:57:28;5.40;;;3.67;;
61590;SDS011;57639;52.410;-1.966;2022-09-03T04:00:37;5.65;;;3.80;;
61590;SDS011;57639;52.410;-1.966;2022-09-03T04:03:49;5.13;;;3.38;;
61590;SDS011;57639;52.410;-1.966;2022-09-03T04:06:58;4.90;;;3.80;;
61590;SDS011;57639;52.410;-1.966;2022-09-03T04:10:12;6.32;;;4.18;;
61590;SDS011;57639;52.410;-1.966;2022-09-03T04:13:22;5.18;;;3.92;;
61590;SDS011;57639;52.410;-1.966;2022-09-03T04:16:32;4.82;;;3.90;;
61590;SDS011;57639;52.410;-1.966;2022-09-03T04:19:40;5.40;;;4.15;;
61590;SDS011;57639;52.410;-1.966;2022-09-03T04:22:52;4.53;;;3.78;;
61590;SDS011;57639;52.410;-1.966;2022-09-03T04:26:05;4.63;;;3.67;;
61590;SDS011;57639;52.410;-1.966;2022-09-03T04:29:16;4.68;;;3.88;;
61590;SDS011;57639;52.410;-1.966;2022-09-03T04:32:26;7.10;;;4.15;;
61590;SDS011;57639;52.410;-1.966;2022-09-03T04:36:00;7.03;;;4.15;;
61590;SDS011;57639;52.410;-1.966;2022-09-03T04:39:12;4.85;;;3.97;;
61590;SDS011;57639;52.410;-1.966;2022-09-03T04:42:26;5.20;;;4.32;;
61590;SDS011;57639;52.410;-1.966;2022-09-03T04:45:36;6.40;;;4.25;;
61590;SDS011;57639;52.410;-1.966;2022-09-03T04:48:47;5.50;;;4.47;;
61590;SDS011;57639;52.410;-1.966;2022-09-03T04:51:59;6.35;;;4.70;;
61590;SDS011;57639;52.410;-1.966;2022-09-03T04:55:10;6.15;;;4.55;;
61590;SDS011;57639;52.410;-1.966;2022-09-03T04:58:22;6.70;;;4.30;;
61590;SDS011;57639;52.410;-1.966;2022-09-03T05:01:34;5.63;;;4.03;;
61590;SDS011;57639;52.410;-1.966;2022-09-03T05:04:45;5.57;;;4.55;;
61590;SDS011;57639;52.410;-1.966;2022-09-03T05:07:58;5.50;;;4.53;;
61590;SDS011;57639;52.410;-1.966;2022-09-03T05:11:07;5.47;;;4.87;;
61590;SDS011;57639;52.410;-1.966;2022-09-03T05:14:21;7.10;;;4.80;;
61590;SDS011;57639;52.410;-1.966;2022-09-03T05:17:31;5.53;;;4.57;;
61590;SDS011;57639;52.410;-1.966;2022-09-03T05:20:45;5.45;;;4.53;;
61590;SDS011;57639;52.410;-1.966;2022-09-03T05:23:54;5.05;;;4.38;;
61590;SDS011;57639;52.410;-1.966;2022-09-03T05:27:05;7.43;;;5.22;;
61590;SDS011;57639;52.410;-1.966;2022-09-03T05:30:19;6.05;;;4.82;;
61590;SDS011;57639;52.410;-1.966;2022-09-03T05:33:32;6.15;;;4.85;;
61590;SDS011;57639;52.410;-1.966;2022-09-03T05:36:38;7.00;;;4.80;;
61590;SDS011;57639;52.410;-1.966;2022-09-03T05:39:46;6.43;;;5.10;;
61590;SDS011;57639;52.410;-1.966;2022-09-03T05:42:55;6.28;;;5.30;;
61590;SDS011;57639;52.410;-1.966;2022-09-03T05:46:13;6.83;;;5.00;;
61590;SDS011;57639;52.410;-1.966;2022-09-03T05:49:22;6.25;;;5.03;;
61590;SDS011;57639;52.410;-1.966;2022-09-03T05:52:33;6.28;;;4.82;;
61590;SDS011;57639;52.410;-1.966;2022-09-03T05:55:42;5.97;;;5.35;;
61590;SDS011;57639;52.410;-1.966;2022-09-03T05:59:05;7.15;;;5.00;;
61590;SDS011;57639;52.410;-1.966;2022-09-03T06:02:19;7.45;;;5.40;;
61590;SDS011;57639;52.410;-1.966;2022-09-03T06:05:27;7.80;;;5.30;;
61590;SDS011;57639;52.410;-1.966;2022-09-03T06:08:33;6.43;;;5.28;;
61590;SDS011;57639;52.410;-1.966;2022-09-03T06:15:04;7.25;;;5.57;;
61590;SDS011;57639;52.410;-1.966;2022-09-03T06:18:18;7.82;;;5.40;;
61590;SDS011;57639;52.410;-1.966;2022-09-03T06:21:30;6.20;;;5.18;;
61590;SDS011;57639;52.410;-1.966;2022-09-03T06:24:40;9.55;;;5.70;;
61590;SDS011;57639;52.410;-1.966;2022-09-03T06:27:48;7.25;;;5.65;;
61590;SDS011;57639;52.410;-1.966;2022-09-03T06:34:11;7.18;;;5.15;;
61590;SDS011;57639;52.410;-1.966;2022-09-03T06:37:23;7.57;;;5.43;;
61590;SDS011;57639;52.410;-1.966;2022-09-03T06:40:35;6.88;;;5.47;;
61590;SDS011;57639;52.410;-1.966;2022-09-03T06:43:46;7.15;;;5.20;;
61590;SDS011;57639;52.410;-1.966;2022-09-03T06:46:56;6.50;;;5.13;;
61590;SDS011;57639;52.410;-1.966;2022-09-03T06:50:10;7.70;;;5.40;;
61590;SDS011;57639;52.410;-1.966;2022-09-03T06:53:26;7.13;;;5.53;;
61590;SDS011;57639;52.410;-1.966;2022-09-03T06:56:39;8.95;;;6.30;;
61590;SDS011;57639;52.410;-1.966;2022-09-03T06:59:50;8.32;;;6.93;;
61590;SDS011;57639;52.410;-1.966;2022-09-03T07:03:01;9.60;;;8.00;;
61590;SDS011;57639;52.410;-1.966;2022-09-03T07:06:16;8.95;;;7.65;;
61590;SDS011;57639;52.410;-1.966;2022-09-03T07:09:27;10.38;;;7.85;;
61590;SDS011;57639;52.410;-1.966;2022-09-03T07:12:41;10.77;;;9.45;;
61590;SDS011;57639;52.410;-1.966;2022-09-03T07:15:57;11.52;;;9.05;;
61590;SDS011;57639;52.410;-1.966;2022-09-03T07:19:04;14.18;;;9.40;;
61590;SDS011;57639;52.410;-1.966;2022-09-03T07:22:17;11.35;;;9.68;;
61590;SDS011;57639;52.410;-1.966;2022-09-03T07:25:32;12.20;;;9.35;;
61590;SDS011;57639;52.410;-1.966;2022-09-03T07:28:43;12.13;;;9.90;;
61590;SDS011;57639;52.410;-1.966;2022-09-03T07:31:52;10.80;;;9.70;;
61590;SDS011;57639;52.410;-1.966;2022-09-03T07:35:03;14.98;;;9.50;;
61590;SDS011;57639;52.410;-1.966;2022-09-03T07:38:18;12.30;;;9.98;;
61590;SDS011;57639;52.410;-1.966;2022-09-03T07:41:28;14.38;;;10.63;;
61590;SDS011;57639;52.410;-1.966;2022-09-03T07:44:40;12.00;;;10.65;;
61590;SDS011;57639;52.410;-1.966;2022-09-03T07:47:52;12.23;;;10.57;;
61590;SDS011;57639;52.410;-1.966;2022-09-03T07:51:01;13.95;;;10.88;;
61590;SDS011;57639;52.410;-1.966;2022-09-03T07:54:15;13.18;;;10.23;;
61590;SDS011;57639;52.410;-1.966;2022-09-03T07:57:24;14.38;;;10.45;;
61590;SDS011;57639;52.410;-1.966;2022-09-03T08:00:37;11.70;;;10.50;;
61590;SDS011;57639;52.410;-1.966;2022-09-03T08:03:48;11.70;;;10.07;;
61590;SDS011;57639;52.410;-1.966;2022-09-03T08:07:01;10.93;;;9.27;;
61590;SDS011;57639;52.410;-1.966;2022-09-03T08:10:17;10.32;;;9.32;;
61590;SDS011;57639;52.410;-1.966;2022-09-03T08:13:30;10.55;;;9.43;;
61590;SDS011;57639;52.410;-1.966;2022-09-03T08:16:39;10.63;;;9.55;;
61590;SDS011;57639;52.410;-1.966;2022-09-03T08:19:52;11.20;;;10.00;;
61590;SDS011;57639;52.410;-1.966;2022-09-03T08:23:02;10.20;;;9.20;;
61590;SDS011;57639;52.410;-1.966;2022-09-03T08:26:14;11.05;;;9.60;;
61590;SDS011;57639;52.410;-1.966;2022-09-03T08:29:24;10.00;;;8.90;;
61590;SDS011;57639;52.410;-1.966;2022-09-03T08:32:40;10.45;;;9.35;;
61590;SDS011;57639;52.410;-1.966;2022-09-03T08:35:57;9.48;;;8.57;;
61590;SDS011;57639;52.410;-1.966;2022-09-03T08:39:09;9.35;;;8.35;;
61590;SDS011;57639;52.410;-1.966;2022-09-03T08:42:24;9.05;;;8.18;;
61590;SDS011;57639;52.410;-1.966;2022-09-03T08:45:42;9.23;;;8.32;;
61590;SDS011;57639;52.410;-1.966;2022-09-03T08:48:56;8.95;;;7.75;;
61590;SDS011;57639;52.410;-1.966;2022-09-03T08:52:19;8.82;;;7.57;;
61590;SDS011;57639;52.410;-1.966;2022-09-03T08:55:35;9.32;;;7.57;;
61590;SDS011;57639;52.410;-1.966;2022-09-03T08:58:55;8.27;;;7.47;;
61590;SDS011;57639;52.410;-1.966;2022-09-03T09:02:14;8.35;;;7.32;;
61590;SDS011;57639;52.410;-1.966;2022-09-03T09:05:36;8.15;;;7.35;;
61590;SDS011;57639;52.410;-1.966;2022-09-03T09:09:00;8.05;;;7.25;;
61590;SDS011;57639;52.410;-1.966;2022-09-03T09:12:21;8.82;;;7.03;;
61590;SDS011;57639;52.410;-1.966;2022-09-03T09:15:55;7.93;;;6.82;;
61590;SDS011;57639;52.410;-1.966;2022-09-03T09:19:15;7.35;;;6.65;;
61590;SDS011;57639;52.410;-1.966;2022-09-03T09:22:37;8.05;;;7.03;;
61590;SDS011;57639;52.410;-1.966;2022-09-03T09:25:49;7.50;;;6.53;;
61590;SDS011;57639;52.410;-1.966;2022-09-03T09:29:00;6.50;;;5.88;;
61590;SDS011;57639;52.410;-1.966;2022-09-03T09:32:17;6.95;;;6.20;;
61590;SDS011;57639;52.410;-1.966;2022-09-03T09:35:29;6.35;;;5.70;;
61590;SDS011;57639;52.410;-1.966;2022-09-03T09:38:48;6.25;;;5.65;;
61590;SDS011;57639;52.410;-1.966;2022-09-03T09:42:11;6.63;;;6.03;;
61590;SDS011;57639;52.410;-1.966;2022-09-03T09:45:16;6.35;;;5.70;;
61590;SDS011;57639;52.410;-1.966;2022-09-03T09:52:03;6.30;;;5.70;;
61590;SDS011;57639;52.410;-1.966;2022-09-03T09:55:20;6.13;;;5.53;;
61590;SDS011;57639;52.410;-1.966;2022-09-03T09:58:36;5.90;;;5.30;;
61590;SDS011;57639;52.410;-1.966;2022-09-03T10:02:01;5.18;;;4.68;;
61590;SDS011;57639;52.410;-1.966;2022-09-03T10:05:28;5.90;;;4.80;;
61590;SDS011;57639;52.410;-1.966;2022-09-03T10:08:46;5.22;;;4.72;;
61590;SDS011;57639;52.410;-1.966;2022-09-03T10:11:57;5.90;;;4.60;;
61590;SDS011;57639;52.410;-1.966;2022-09-03T10:15:43;4.90;;;4.40;;
61590;SDS011;57639;52.410;-1.966;2022-09-03T10:19:00;5.47;;;4.55;;
61590;SDS011;57639;52.410;-1.966;2022-09-03T10:22:20;4.28;;;3.88;;
61590;SDS011;57639;52.410;-1.966;2022-09-03T10:25:38;4.82;;;4.32;;
61590;SDS011;57639;52.410;-1.966;2022-09-03T10:29:00;4.65;;;4.20;;
61590;SDS011;57639;52.410;-1.966;2022-09-03T10:32:21;4.30;;;3.85;;
61590;SDS011;57639;52.410;-1.966;2022-09-03T10:35:56;4.53;;;4.03;;
61590;SDS011;57639;52.410;-1.966;2022-09-03T10:39:33;4.57;;;4.03;;
61590;SDS011;57639;52.410;-1.966;2022-09-03T10:43:14;4.30;;;3.90;;
61590;SDS011;57639;52.410;-1.966;2022-09-03T10:46:35;4.55;;;3.75;;
61590;SDS011;57639;52.410;-1.966;2022-09-03T10:50:21;6.20;;;4.07;;
61590;SDS011;57639;52.410;-1.966;2022-09-03T10:53:45;4.10;;;3.50;;
61590;SDS011;57639;52.410;-1.966;2022-09-03T10:57:16;4.18;;;3.78;;
61590;SDS011;57639;52.410;-1.966;2022-09-03T11:00:40;5.22;;;3.67;;
61590;SDS011;57639;52.410;-1.966;2022-09-03T11:04:11;3.90;;;3.53;;
61590;SDS011;57639;52.410;-1.966;2022-09-03T11:07:33;3.75;;;3.35;;
61590;SDS011;57639;52.410;-1.966;2022-09-03T11:10:50;3.88;;;3.47;;
61590;SDS011;57639;52.410;-1.966;2022-09-03T11:14:21;3.83;;;3.28;;
61590;SDS011;57639;52.410;-1.966;2022-09-03T11:17:45;3.60;;;3.30;;
61590;SDS011;57639;52.410;-1.966;2022-09-03T11:21:00;4.15;;;3.10;;
61590;SDS011;57639;52.410;-1.966;2022-09-03T11:24:15;4.38;;;3.28;;
61590;SDS011;57639;52.410;-1.966;2022-09-03T11:31:08;3.35;;;3.05;;
61590;SDS011;57639;52.410;-1.966;2022-09-03T11:34:25;4.43;;;3.47;;
61590;SDS011;57639;52.410;-1.966;2022-09-03T11:37:43;4.28;;;3.45;;
61590;SDS011;57639;52.410;-1.966;2022-09-03T11:40:57;3.40;;;3.10;;
61590;SDS011;57639;52.410;-1.966;2022-09-03T11:44:18;3.33;;;3.03;;
61590;SDS011;57639;52.410;-1.966;2022-09-03T11:47:35;3.70;;;3.28;;
61590;SDS011;57639;52.410;-1.966;2022-09-03T11:50:54;3.60;;;3.10;;
61590;SDS011;57639;52.410;-1.966;2022-09-03T11:54:01;3.47;;;3.17;;
61590;SDS011;57639;52.410;-1.966;2022-09-03T11:57:12;3.70;;;3.17;;
61590;SDS011;57639;52.410;-1.966;2022-09-03T12:00:20;4.32;;;3.20;;
61590;SDS011;57639;52.410;-1.966;2022-09-03T12:03:37;4.15;;;3.25;;
61590;SDS011;57639;52.410;-1.966;2022-09-03T12:07:01;3.40;;;2.97;;
61590;SDS011;57639;52.410;-1.966;2022-09-03T12:10:25;3.75;;;2.92;;
61590;SDS011;57639;52.410;-1.966;2022-09-03T12:13:44;3.58;;;3.05;;
61590;SDS011;57639;52.410;-1.966;2022-09-03T12:17:03;4.10;;;3.10;;
61590;SDS011;57639;52.410;-1.966;2022-09-03T12:20:26;3.53;;;3.20;;
61590;SDS011;57639;52.410;-1.966;2022-09-03T12:23:34;3.20;;;2.90;;
61590;SDS011;57639;52.410;-1.966;2022-09-03T12:26:45;3.25;;;2.95;;
61590;SDS011;57639;52.410;-1.966;2022-09-03T12:29:54;3.50;;;3.20;;
61590;SDS011;57639;52.410;-1.966;2022-09-03T12:33:02;3.45;;;2.80;;
61590;SDS011;57639;52.410;-1.966;2022-09-03T12:36:16;4.00;;;3.00;;
61590;SDS011;57639;52.410;-1.966;2022-09-03T12:39:23;3.37;;;3.07;;
61590;SDS011;57639;52.410;-1.966;2022-09-03T12:42:53;4.35;;;2.85;;
61590;SDS011;57639;52.410;-1.966;2022-09-03T12:46:21;3.10;;;2.80;;
61590;SDS011;57639;52.410;-1.966;2022-09-03T12:49:37;3.28;;;2.97;;
61590;SDS011;57639;52.410;-1.966;2022-09-03T12:52:47;3.85;;;3.30;;
61590;SDS011;57639;52.410;-1.966;2022-09-03T12:55:57;3.25;;;2.75;;
61590;SDS011;57639;52.410;-1.966;2022-09-03T12:59:08;3.40;;;3.05;;
61590;SDS011;57639;52.410;-1.966;2022-09-03T13:02:20;3.22;;;2.92;;
61590;SDS011;57639;52.410;-1.966;2022-09-03T13:08:43;3.83;;;2.78;;
61590;SDS011;57639;52.410;-1.966;2022-09-03T13:11:52;3.17;;;2.88;;
61590;SDS011;57639;52.410;-1.966;2022-09-03T13:15:06;3.25;;;2.95;;
61590;SDS011;57639;52.410;-1.966;2022-09-03T13:18:16;3.60;;;3.10;;
61590;SDS011;57639;52.410;-1.966;2022-09-03T13:21:34;3.40;;;3.10;;
61590;SDS011;57639;52.410;-1.966;2022-09-03T13:24:59;3.53;;;2.75;;
61590;SDS011;57639;52.410;-1.966;2022-09-03T13:28:20;3.47;;;3.17;;
61590;SDS011;57639;52.410;-1.966;2022-09-03T13:31:42;3.00;;;2.70;;
61590;SDS011;57639;52.410;-1.966;2022-09-03T13:34:57;3.45;;;3.03;;
61590;SDS011;57639;52.410;-1.966;2022-09-03T13:38:13;3.20;;;2.88;;
61590;SDS011;57639;52.410;-1.966;2022-09-03T13:41:44;3.33;;;3.03;;
61590;SDS011;57639;52.410;-1.966;2022-09-03T13:44:55;3.10;;;2.80;;
61590;SDS011;57639;52.410;-1.966;2022-09-03T13:48:10;3.00;;;2.70;;
61590;SDS011;57639;52.410;-1.966;2022-09-03T13:51:38;3.15;;;2.85;;
61590;SDS011;57639;52.410;-1.966;2022-09-03T13:54:54;3.20;;;2.90;;
61590;SDS011;57639;52.410;-1.966;2022-09-03T13:58:08;3.20;;;2.90;;
61590;SDS011;57639;52.410;-1.966;2022-09-03T14:01:26;3.50;;;3.20;;
61590;SDS011;57639;52.410;-1.966;2022-09-03T14:04:47;3.47;;;2.90;;
61590;SDS011;57639;52.410;-1.966;2022-09-03T14:08:08;3.50;;;3.20;;
61590;SDS011;57639;52.410;-1.966;2022-09-03T14:11:25;3.25;;;2.88;;
61590;SDS011;57639;52.410;-1.966;2022-09-03T14:14:40;3.28;;;2.97;;
61590;SDS011;57639;52.410;-1.966;2022-09-03T14:17:55;3.75;;;3.13;;
61590;SDS011;57639;52.410;-1.966;2022-09-03T14:21:09;3.50;;;3.15;;
61590;SDS011;57639;52.410;-1.966;2022-09-03T14:24:21;3.40;;;3.10;;
61590;SDS011;57639;52.410;-1.966;2022-09-03T14:27:32;3.08;;;2.83;;
61590;SDS011;57639;52.410;-1.966;2022-09-03T14:30:42;3.20;;;2.90;;
61590;SDS011;57639;52.410;-1.966;2022-09-03T14:34:00;3.70;;;3.25;;
61590;SDS011;57639;52.410;-1.966;2022-09-03T14:37:14;3.70;;;3.40;;
61590;SDS011;57639;52.410;-1.966;2022-09-03T14:40:33;3.88;;;3.03;;
61590;SDS011;57639;52.410;-1.966;2022-09-03T14:43:50;3.28;;;2.97;;
61590;SDS011;57639;52.410;-1.966;2022-09-03T14:47:18;3.25;;;2.95;;
61590;SDS011;57639;52.410;-1.966;2022-09-03T14:50:43;3.72;;;3.20;;
61590;SDS011;57639;52.410;-1.966;2022-09-03T14:54:14;4.00;;;3.33;;
61590;SDS011;57639;52.410;-1.966;2022-09-03T14:57:44;3.72;;;3.35;;
61590;SDS011;57639;52.410;-1.966;2022-09-03T15:01:05;3.30;;;3.00;;
61590;SDS011;57639;52.410;-1.966;2022-09-03T15:04:36;3.60;;;3.20;;
61590;SDS011;57639;52.410;-1.966;2022-09-03T15:07:57;3.67;;;2.90;;
61590;SDS011;57639;52.410;-1.966;2022-09-03T15:11:11;3.45;;;3.15;;
61590;SDS011;57639;52.410;-1.966;2022-09-03T15:14:25;3.72;;;3.15;;
61590;SDS011;57639;52.410;-1.966;2022-09-03T15:17:38;3.30;;;2.88;;
61590;SDS011;57639;52.410;-1.966;2022-09-03T15:20:59;3.10;;;2.78;;
61590;SDS011;57639;52.410;-1.966;2022-09-03T15:24:17;3.95;;;3.17;;
61590;SDS011;57639;52.410;-1.966;2022-09-03T15:27:37;3.00;;;2.70;;
61590;SDS011;57639;52.410;-1.966;2022-09-03T15:30:51;3.67;;;3.38;;
61590;SDS011;57639;52.410;-1.966;2022-09-03T15:37:24;3.47;;;3.17;;
61590;SDS011;57639;52.410;-1.966;2022-09-03T15:40:34;3.83;;;3.28;;
61590;SDS011;57639;52.410;-1.966;2022-09-03T15:43:48;3.83;;;3.40;;
61590;SDS011;57639;52.410;-1.966;2022-09-03T15:46:59;3.30;;;3.00;;
61590;SDS011;57639;52.410;-1.966;2022-09-03T15:50:15;3.33;;;3.03;;
61590;SDS011;57639;52.410;-1.966;2022-09-03T15:53:38;3.63;;;3.05;;
61590;SDS011;57639;52.410;-1.966;2022-09-03T15:56:51;4.03;;;3.30;;
61590;SDS011;57639;52.410;-1.966;2022-09-03T16:00:03;3.55;;;3.25;;
61590;SDS011;57639;52.410;-1.966;2022-09-03T16:03:12;3.70;;;3.15;;
61590;SDS011;57639;52.410;-1.966;2022-09-03T16:06:29;3.50;;;3.20;;
61590;SDS011;57639;52.410;-1.966;2022-09-03T16:09:44;3.80;;;3.45;;
61590;SDS011;57639;52.410;-1.966;2022-09-03T16:16:51;4.38;;;3.67;;
61590;SDS011;57639;52.410;-1.966;2022-09-03T16:20:05;3.83;;;3.40;;
61590;SDS011;57639;52.410;-1.966;2022-09-03T16:23:22;4.22;;;3.80;;
61590;SDS011;57639;52.410;-1.966;2022-09-03T16:26:39;4.05;;;3.60;;
61590;SDS011;57639;52.410;-1.966;2022-09-03T16:29:58;4.32;;;3.53;;
61590;SDS011;57639;52.410;-1.966;2022-09-03T16:33:09;3.67;;;3.33;;
61590;SDS011;57639;52.410;-1.966;2022-09-03T16:36:31;3.95;;;3.55;;
61590;SDS011;57639;52.410;-1.966;2022-09-03T16:39:47;4.00;;;3.60;;
61590;SDS011;57639;52.410;-1.966;2022-09-03T16:43:02;3.53;;;3.15;;
61590;SDS011;57639;52.410;-1.966;2022-09-03T16:46:36;4.30;;;3.78;;
61590;SDS011;57639;52.410;-1.966;2022-09-03T16:49:51;4.10;;;3.70;;
61590;SDS011;57639;52.410;-1.966;2022-09-03T16:53:07;3.80;;;3.40;;
61590;SDS011;57639;52.410;-1.966;2022-09-03T16:56:30;4.10;;;3.70;;
61590;SDS011;57639;52.410;-1.966;2022-09-03T16:59:57;4.07;;;3.65;;
61590;SDS011;57639;52.410;-1.966;2022-09-03T17:03:15;3.42;;;3.13;;
61590;SDS011;57639;52.410;-1.966;2022-09-03T17:06:35;3.72;;;3.42;;
61590;SDS011;57639;52.410;-1.966;2022-09-03T17:10:02;4.53;;;3.55;;
61590;SDS011;57639;52.410;-1.966;2022-09-03T17:13:28;4.03;;;3.63;;
61590;SDS011;57639;52.410;-1.966;2022-09-03T17:17:07;4.05;;;3.65;;
61590;SDS011;57639;52.410;-1.966;2022-09-03T17:20:28;3.80;;;3.40;;
61590;SDS011;57639;52.410;-1.966;2022-09-03T17:24:04;4.18;;;3.78;;
61590;SDS011;57639;52.410;-1.966;2022-09-03T17:31:09;4.05;;;3.58;;
61590;SDS011;57639;52.410;-1.966;2022-09-03T17:34:32;4.10;;;3.70;;
61590;SDS011;57639;52.410;-1.966;2022-09-03T17:37:56;4.10;;;3.65;;
61590;SDS011;57639;52.410;-1.966;2022-09-03T17:41:13;4.30;;;3.60;;
61590;SDS011;57639;52.410;-1.966;2022-09-03T17:44:29;3.95;;;3.58;;
61590;SDS011;57639;52.410;-1.966;2022-09-03T17:47:56;3.75;;;3.45;;
61590;SDS011;57639;52.410;-1.966;2022-09-03T17:51:23;4.30;;;3.90;;
61590;SDS011;57639;52.410;-1.966;2022-09-03T17:54:40;3.47;;;3.17;;
61590;SDS011;57639;52.410;-1.966;2022-09-03T17:57:49;3.90;;;3.50;;
61590;SDS011;57639;52.410;-1.966;2022-09-03T18:01:05;4.10;;;3.70;;
61590;SDS011;57639;52.410;-1.966;2022-09-03T18:04:28;4.15;;;3.75;;
61590;SDS011;57639;52.410;-1.966;2022-09-03T18:07:53;4.22;;;3.60;;
61590;SDS011;57639;52.410;-1.966;2022-09-03T18:11:08;3.58;;;3.28;;
61590;SDS011;57639;52.410;-1.966;2022-09-03T18:14:19;3.40;;;3.10;;
61590;SDS011;57639;52.410;-1.966;2022-09-03T18:17:30;3.70;;;3.40;;
61590;SDS011;57639;52.410;-1.966;2022-09-03T18:20:44;3.70;;;3.40;;
61590;SDS011;57639;52.410;-1.966;2022-09-03T18:31:26;3.55;;;3.22;;
61590;SDS011;57639;52.410;-1.966;2022-09-03T18:34:50;4.05;;;3.50;;
61590;SDS011;57639;52.410;-1.966;2022-09-03T18:38:12;3.70;;;3.35;;
61590;SDS011;57639;52.410;-1.966;2022-09-03T18:45:25;4.53;;;3.47;;
61590;SDS011;57639;52.410;-1.966;2022-09-03T18:49:17;3.90;;;3.50;;
61590;SDS011;57639;52.410;-1.966;2022-09-03T18:52:48;3.85;;;3.50;;
61590;SDS011;57639;52.410;-1.966;2022-09-03T18:56:20;4.22;;;3.50;;
61590;SDS011;57639;52.410;-1.966;2022-09-03T18:59:57;3.85;;;3.45;;
61590;SDS011;57639;52.410;-1.966;2022-09-03T19:03:37;5.95;;;3.33;;
61590;SDS011;57639;52.410;-1.966;2022-09-03T19:07:10;3.95;;;3.53;;
61590;SDS011;57639;52.410;-1.966;2022-09-03T19:10:40;5.60;;;3.67;;
61590;SDS011;57639;52.410;-1.966;2022-09-03T19:14:11;5.40;;;3.30;;
61590;SDS011;57639;52.410;-1.966;2022-09-03T19:17:53;4.78;;;3.92;;
61590;SDS011;57639;52.410;-1.966;2022-09-03T19:21:26;4.40;;;4.00;;
61590;SDS011;57639;52.410;-1.966;2022-09-03T19:24:58;7.53;;;4.32;;
61590;SDS011;57639;52.410;-1.966;2022-09-03T19:28:23;5.75;;;4.47;;
61590;SDS011;57639;52.410;-1.966;2022-09-03T19:31:51;4.35;;;3.95;;
61590;SDS011;57639;52.410;-1.966;2022-09-03T19:38:54;6.47;;;4.50;;
61590;SDS011;57639;52.410;-1.966;2022-09-03T19:42:29;4.60;;;4.18;;
61590;SDS011;57639;52.410;-1.966;2022-09-03T19:46:11;7.30;;;4.45;;
61590;SDS011;57639;52.410;-1.966;2022-09-03T19:50:01;7.50;;;4.72;;
61590;SDS011;57639;52.410;-1.966;2022-09-03T19:53:37;5.38;;;4.32;;
61590;SDS011;57639;52.410;-1.966;2022-09-03T19:57:02;5.43;;;4.20;;
61590;SDS011;57639;52.410;-1.966;2022-09-03T20:00:27;5.07;;;4.40;;
61590;SDS011;57639;52.410;-1.966;2022-09-03T20:03:49;5.65;;;4.15;;
61590;SDS011;57639;52.410;-1.966;2022-09-03T20:07:15;4.88;;;4.38;;
61590;SDS011;57639;52.410;-1.966;2022-09-03T20:10:43;4.43;;;4.03;;
61590;SDS011;57639;52.410;-1.966;2022-09-03T20:13:54;5.30;;;4.25;;
61590;SDS011;57639;52.410;-1.966;2022-09-03T20:17:20;5.18;;;4.43;;
61590;SDS011;57639;52.410;-1.966;2022-09-03T20:20:36;6.20;;;4.10;;